sensor_id;sensor_type;location;lat;lon;timestamp;P1;durP1;ratioP1;P2;durP2;ratioP2
81894;SDS011;76753;45.642;13.758;2024-03-17T00:01:38;8.95;;;8.05;;
81894;SDS011;76753;45.642;13.758;2024-03-17T00:04:25;8.77;;;8.02;;
81894;SDS011;76753;45.642;13.758;2024-03-17T00:07:11;8.15;;;7.45;;
81894;SDS011;76753;45.642;13.758;2024-03-17T00:09:56;8.75;;;7.90;;
81894;SDS011;76753;45.642;13.758;2024-03-17T00:12:40;9.90;;;8.07;;
81894;SDS011;76753;45.642;13.758;2024-03-17T00:15:25;8.75;;;7.80;;
81894;SDS011;76753;45.642;13.758;2024-03-17T00:18:13;9.30;;;8.40;;
81894;SDS011;76753;45.642;13.758;2024-03-17T00:20:58;9.38;;;8.38;;
81894;SDS011;76753;45.642;13.758;2024-03-17T00:23:43;9.98;;;8.95;;
81894;SDS011;76753;45.642;13.758;2024-03-17T00:26:27;9.18;;;8.18;;
81894;SDS011;76753;45.642;13.758;2024-03-17T00:29:12;8.23;;;7.53;;
81894;SDS011;76753;45.642;13.758;2024-03-17T00:31:58;8.80;;;8.00;;
81894;SDS011;76753;45.642;13.758;2024-03-17T00:34:42;8.50;;;7.68;;
81894;SDS011;76753;45.642;13.758;2024-03-17T00:37:27;8.68;;;7.88;;
81894;SDS011;76753;45.642;13.758;2024-03-17T00:40:12;8.60;;;7.70;;
81894;SDS011;76753;45.642;13.758;2024-03-17T00:42:56;8.55;;;7.72;;
81894;SDS011;76753;45.642;13.758;2024-03-17T00:45:41;7.57;;;7.00;;
81894;SDS011;76753;45.642;13.758;2024-03-17T00:48:25;8.48;;;7.68;;
81894;SDS011;76753;45.642;13.758;2024-03-17T00:51:10;8.30;;;7.57;;
81894;SDS011;76753;45.642;13.758;2024-03-17T00:53:54;9.27;;;8.30;;
81894;SDS011;76753;45.642;13.758;2024-03-17T00:56:40;8.30;;;7.53;;
81894;SDS011;76753;45.642;13.758;2024-03-17T00:59:24;7.57;;;6.88;;
81894;SDS011;76753;45.642;13.758;2024-03-17T01:02:08;8.25;;;7.57;;
81894;SDS011;76753;45.642;13.758;2024-03-17T01:04:53;8.00;;;7.30;;
81894;SDS011;76753;45.642;13.758;2024-03-17T01:07:37;8.38;;;7.57;;
81894;SDS011;76753;45.642;13.758;2024-03-17T01:10:22;8.32;;;7.63;;
81894;SDS011;76753;45.642;13.758;2024-03-17T01:13:06;8.38;;;7.40;;
81894;SDS011;76753;45.642;13.758;2024-03-17T01:15:52;8.90;;;8.10;;
81894;SDS011;76753;45.642;13.758;2024-03-17T01:18:36;7.85;;;6.95;;
81894;SDS011;76753;45.642;13.758;2024-03-17T01:21:21;8.48;;;7.78;;
81894;SDS011;76753;45.642;13.758;2024-03-17T01:24:06;7.93;;;7.13;;
81894;SDS011;76753;45.642;13.758;2024-03-17T01:26:50;9.70;;;7.45;;
81894;SDS011;76753;45.642;13.758;2024-03-17T01:29:35;7.22;;;6.50;;
81894;SDS011;76753;45.642;13.758;2024-03-17T01:32:19;8.50;;;7.60;;
81894;SDS011;76753;45.642;13.758;2024-03-17T01:35:04;7.90;;;7.13;;
81894;SDS011;76753;45.642;13.758;2024-03-17T01:37:50;7.80;;;7.00;;
81894;SDS011;76753;45.642;13.758;2024-03-17T01:40:34;8.43;;;7.70;;
81894;SDS011;76753;45.642;13.758;2024-03-17T01:43:18;10.50;;;7.93;;
81894;SDS011;76753;45.642;13.758;2024-03-17T01:46:03;8.00;;;7.32;;
81894;SDS011;76753;45.642;13.758;2024-03-17T01:48:47;7.43;;;6.82;;
81894;SDS011;76753;45.642;13.758;2024-03-17T01:51:32;7.57;;;6.85;;
81894;SDS011;76753;45.642;13.758;2024-03-17T01:54:16;7.85;;;7.13;;
81894;SDS011;76753;45.642;13.758;2024-03-17T01:57:00;7.53;;;6.93;;
81894;SDS011;76753;45.642;13.758;2024-03-17T01:59:45;7.85;;;7.10;;
81894;SDS011;76753;45.642;13.758;2024-03-17T02:02:30;7.20;;;6.50;;
81894;SDS011;76753;45.642;13.758;2024-03-17T02:05:15;7.45;;;6.63;;
81894;SDS011;76753;45.642;13.758;2024-03-17T02:08:00;7.60;;;7.00;;
81894;SDS011;76753;45.642;13.758;2024-03-17T02:10:45;7.93;;;7.05;;
81894;SDS011;76753;45.642;13.758;2024-03-17T02:13:30;6.82;;;6.22;;
81894;SDS011;76753;45.642;13.758;2024-03-17T02:16:14;7.85;;;7.00;;
81894;SDS011;76753;45.642;13.758;2024-03-17T02:18:59;7.45;;;6.82;;
81894;SDS011;76753;45.642;13.758;2024-03-17T02:21:43;7.78;;;7.03;;
81894;SDS011;76753;45.642;13.758;2024-03-17T02:24:27;8.40;;;7.13;;
81894;SDS011;76753;45.642;13.758;2024-03-17T02:27:12;8.43;;;7.55;;
81894;SDS011;76753;45.642;13.758;2024-03-17T02:29:56;7.30;;;6.70;;
81894;SDS011;76753;45.642;13.758;2024-03-17T02:32:41;7.65;;;6.95;;
81894;SDS011;76753;45.642;13.758;2024-03-17T02:35:25;7.90;;;7.10;;
81894;SDS011;76753;45.642;13.758;2024-03-17T02:38:10;7.38;;;6.68;;
81894;SDS011;76753;45.642;13.758;2024-03-17T02:41:19;8.50;;;7.60;;
81894;SDS011;76753;45.642;13.758;2024-03-17T02:44:04;8.25;;;7.30;;
81894;SDS011;76753;45.642;13.758;2024-03-17T02:46:49;8.13;;;7.47;;
81894;SDS011;76753;45.642;13.758;2024-03-17T02:49:34;9.07;;;6.93;;
81894;SDS011;76753;45.642;13.758;2024-03-17T02:52:23;7.93;;;7.22;;
81894;SDS011;76753;45.642;13.758;2024-03-17T02:55:08;7.50;;;6.80;;
81894;SDS011;76753;45.642;13.758;2024-03-17T02:57:53;7.18;;;6.57;;
81894;SDS011;76753;45.642;13.758;2024-03-17T03:00:37;7.88;;;7.07;;
81894;SDS011;76753;45.642;13.758;2024-03-17T03:03:23;7.25;;;6.65;;
81894;SDS011;76753;45.642;13.758;2024-03-17T03:06:08;7.57;;;6.90;;
81894;SDS011;76753;45.642;13.758;2024-03-17T03:08:52;7.70;;;7.00;;
81894;SDS011;76753;45.642;13.758;2024-03-17T03:11:37;7.22;;;6.60;;
81894;SDS011;76753;45.642;13.758;2024-03-17T03:14:22;7.68;;;6.93;;
81894;SDS011;76753;45.642;13.758;2024-03-17T03:17:06;7.40;;;6.70;;
81894;SDS011;76753;45.642;13.758;2024-03-17T03:19:51;8.10;;;7.30;;
81894;SDS011;76753;45.642;13.758;2024-03-17T03:22:36;8.13;;;7.38;;
81894;SDS011;76753;45.642;13.758;2024-03-17T03:25:20;7.90;;;7.03;;
81894;SDS011;76753;45.642;13.758;2024-03-17T03:28:05;8.55;;;6.85;;
81894;SDS011;76753;45.642;13.758;2024-03-17T03:30:49;6.97;;;6.38;;
81894;SDS011;76753;45.642;13.758;2024-03-17T03:33:35;7.15;;;6.57;;
81894;SDS011;76753;45.642;13.758;2024-03-17T03:36:19;7.28;;;6.60;;
81894;SDS011;76753;45.642;13.758;2024-03-17T03:39:04;6.93;;;6.32;;
81894;SDS011;76753;45.642;13.758;2024-03-17T03:41:49;7.30;;;6.80;;
81894;SDS011;76753;45.642;13.758;2024-03-17T03:44:33;7.93;;;6.95;;
81894;SDS011;76753;45.642;13.758;2024-03-17T03:47:17;7.63;;;6.90;;
81894;SDS011;76753;45.642;13.758;2024-03-17T03:50:02;7.45;;;6.72;;
81894;SDS011;76753;45.642;13.758;2024-03-17T03:52:46;7.38;;;6.68;;
81894;SDS011;76753;45.642;13.758;2024-03-17T03:55:31;7.45;;;6.65;;
81894;SDS011;76753;45.642;13.758;2024-03-17T03:58:16;7.22;;;6.63;;
81894;SDS011;76753;45.642;13.758;2024-03-17T04:01:03;7.18;;;6.47;;
81894;SDS011;76753;45.642;13.758;2024-03-17T04:03:49;7.05;;;6.35;;
81894;SDS011;76753;45.642;13.758;2024-03-17T04:06:34;7.20;;;6.50;;
81894;SDS011;76753;45.642;13.758;2024-03-17T04:09:21;7.85;;;7.05;;
81894;SDS011;76753;45.642;13.758;2024-03-17T04:12:05;6.97;;;6.38;;
81894;SDS011;76753;45.642;13.758;2024-03-17T04:14:50;6.97;;;6.30;;
81894;SDS011;76753;45.642;13.758;2024-03-17T04:17:37;7.30;;;6.70;;
81894;SDS011;76753;45.642;13.758;2024-03-17T04:20:22;6.88;;;6.28;;
81894;SDS011;76753;45.642;13.758;2024-03-17T04:23:07;7.40;;;6.30;;
81894;SDS011;76753;45.642;13.758;2024-03-17T04:25:52;7.63;;;6.93;;
81894;SDS011;76753;45.642;13.758;2024-03-17T04:28:36;6.95;;;6.35;;
81894;SDS011;76753;45.642;13.758;2024-03-17T04:31:21;7.35;;;6.68;;
81894;SDS011;76753;45.642;13.758;2024-03-17T04:34:07;6.45;;;5.95;;
81894;SDS011;76753;45.642;13.758;2024-03-17T04:36:51;7.35;;;6.53;;
81894;SDS011;76753;45.642;13.758;2024-03-17T04:39:35;7.20;;;6.50;;
81894;SDS011;76753;45.642;13.758;2024-03-17T04:42:21;6.70;;;6.03;;
81894;SDS011;76753;45.642;13.758;2024-03-17T04:45:06;7.47;;;6.88;;
81894;SDS011;76753;45.642;13.758;2024-03-17T04:47:53;7.22;;;6.63;;
81894;SDS011;76753;45.642;13.758;2024-03-17T04:50:37;7.05;;;6.35;;
81894;SDS011;76753;45.642;13.758;2024-03-17T04:53:21;6.95;;;6.35;;
81894;SDS011;76753;45.642;13.758;2024-03-17T04:56:06;6.65;;;6.05;;
81894;SDS011;76753;45.642;13.758;2024-03-17T04:58:51;7.55;;;6.85;;
81894;SDS011;76753;45.642;13.758;2024-03-17T05:01:35;6.88;;;6.28;;
81894;SDS011;76753;45.642;13.758;2024-03-17T05:04:20;7.50;;;6.88;;
81894;SDS011;76753;45.642;13.758;2024-03-17T05:07:04;7.30;;;6.63;;
81894;SDS011;76753;45.642;13.758;2024-03-17T05:09:49;7.50;;;6.82;;
81894;SDS011;76753;45.642;13.758;2024-03-17T05:12:33;6.97;;;6.43;;
81894;SDS011;76753;45.642;13.758;2024-03-17T05:15:18;6.25;;;5.78;;
81894;SDS011;76753;45.642;13.758;2024-03-17T05:18:03;6.53;;;6.00;;
81894;SDS011;76753;45.642;13.758;2024-03-17T05:20:56;7.40;;;6.65;;
81894;SDS011;76753;45.642;13.758;2024-03-17T05:23:43;7.00;;;6.30;;
81894;SDS011;76753;45.642;13.758;2024-03-17T05:26:28;7.10;;;6.38;;
81894;SDS011;76753;45.642;13.758;2024-03-17T05:29:15;7.32;;;6.72;;
81894;SDS011;76753;45.642;13.758;2024-03-17T05:31:59;7.35;;;6.63;;
81894;SDS011;76753;45.642;13.758;2024-03-17T05:34:43;7.65;;;7.05;;
81894;SDS011;76753;45.642;13.758;2024-03-17T05:37:28;6.70;;;6.10;;
81894;SDS011;76753;45.642;13.758;2024-03-17T05:40:14;7.20;;;6.50;;
81894;SDS011;76753;45.642;13.758;2024-03-17T05:42:59;7.07;;;6.38;;
81894;SDS011;76753;45.642;13.758;2024-03-17T05:45:43;7.82;;;7.10;;
81894;SDS011;76753;45.642;13.758;2024-03-17T05:48:31;7.88;;;7.18;;
81894;SDS011;76753;45.642;13.758;2024-03-17T05:51:16;6.70;;;6.20;;
81894;SDS011;76753;45.642;13.758;2024-03-17T05:54:01;7.88;;;7.03;;
81894;SDS011;76753;45.642;13.758;2024-03-17T05:56:45;7.72;;;6.95;;
81894;SDS011;76753;45.642;13.758;2024-03-17T05:59:30;7.70;;;6.40;;
81894;SDS011;76753;45.642;13.758;2024-03-17T06:02:17;7.13;;;6.43;;
81894;SDS011;76753;45.642;13.758;2024-03-17T06:05:02;6.90;;;6.20;;
81894;SDS011;76753;45.642;13.758;2024-03-17T06:07:48;6.90;;;6.38;;
81894;SDS011;76753;45.642;13.758;2024-03-17T06:10:32;6.95;;;6.35;;
81894;SDS011;76753;45.642;13.758;2024-03-17T06:13:18;7.57;;;6.80;;
81894;SDS011;76753;45.642;13.758;2024-03-17T06:16:03;7.60;;;6.90;;
81894;SDS011;76753;45.642;13.758;2024-03-17T06:18:48;7.30;;;6.60;;
81894;SDS011;76753;45.642;13.758;2024-03-17T06:21:35;7.25;;;6.68;;
81894;SDS011;76753;45.642;13.758;2024-03-17T06:24:20;7.43;;;6.72;;
81894;SDS011;76753;45.642;13.758;2024-03-17T06:27:04;8.02;;;7.32;;
81894;SDS011;76753;45.642;13.758;2024-03-17T06:29:48;7.47;;;6.88;;
81894;SDS011;76753;45.642;13.758;2024-03-17T06:32:33;7.85;;;7.15;;
81894;SDS011;76753;45.642;13.758;2024-03-17T06:35:17;7.72;;;7.03;;
81894;SDS011;76753;45.642;13.758;2024-03-17T06:38:02;8.30;;;7.60;;
81894;SDS011;76753;45.642;13.758;2024-03-17T06:40:50;7.93;;;7.22;;
81894;SDS011;76753;45.642;13.758;2024-03-17T06:43:34;7.50;;;6.90;;
81894;SDS011;76753;45.642;13.758;2024-03-17T06:46:19;8.00;;;7.22;;
81894;SDS011;76753;45.642;13.758;2024-03-17T06:49:03;8.18;;;7.38;;
81894;SDS011;76753;45.642;13.758;2024-03-17T06:51:48;7.20;;;6.63;;
81894;SDS011;76753;45.642;13.758;2024-03-17T06:54:32;8.02;;;7.28;;
81894;SDS011;76753;45.642;13.758;2024-03-17T06:57:17;8.02;;;7.30;;
81894;SDS011;76753;45.642;13.758;2024-03-17T07:00:02;8.57;;;7.78;;
81894;SDS011;76753;45.642;13.758;2024-03-17T07:02:49;8.32;;;7.63;;
81894;SDS011;76753;45.642;13.758;2024-03-17T07:05:33;8.68;;;7.97;;
81894;SDS011;76753;45.642;13.758;2024-03-17T07:08:18;8.70;;;7.90;;
81894;SDS011;76753;45.642;13.758;2024-03-17T07:11:04;8.88;;;7.97;;
81894;SDS011;76753;45.642;13.758;2024-03-17T07:13:50;8.07;;;7.28;;
81894;SDS011;76753;45.642;13.758;2024-03-17T07:16:34;8.23;;;7.32;;
81894;SDS011;76753;45.642;13.758;2024-03-17T07:19:19;8.40;;;7.70;;
81894;SDS011;76753;45.642;13.758;2024-03-17T07:22:03;10.05;;;7.80;;
81894;SDS011;76753;45.642;13.758;2024-03-17T07:24:47;8.80;;;8.00;;
81894;SDS011;76753;45.642;13.758;2024-03-17T07:27:33;8.50;;;7.80;;
81894;SDS011;76753;45.642;13.758;2024-03-17T07:30:20;8.88;;;8.07;;
81894;SDS011;76753;45.642;13.758;2024-03-17T07:33:05;10.70;;;8.98;;
81894;SDS011;76753;45.642;13.758;2024-03-17T07:35:50;9.27;;;8.43;;
81894;SDS011;76753;45.642;13.758;2024-03-17T07:38:35;9.90;;;8.90;;
81894;SDS011;76753;45.642;13.758;2024-03-17T07:41:20;11.25;;;9.00;;
81894;SDS011;76753;45.642;13.758;2024-03-17T07:44:04;12.57;;;9.35;;
81894;SDS011;76753;45.642;13.758;2024-03-17T07:46:49;9.85;;;8.95;;
81894;SDS011;76753;45.642;13.758;2024-03-17T07:49:33;8.98;;;8.07;;
81894;SDS011;76753;45.642;13.758;2024-03-17T07:52:17;9.25;;;8.30;;
81894;SDS011;76753;45.642;13.758;2024-03-17T07:55:02;9.02;;;8.07;;
81894;SDS011;76753;45.642;13.758;2024-03-17T07:57:46;9.38;;;8.07;;
81894;SDS011;76753;45.642;13.758;2024-03-17T08:00:30;9.20;;;8.40;;
81894;SDS011;76753;45.642;13.758;2024-03-17T08:03:15;9.43;;;8.45;;
81894;SDS011;76753;45.642;13.758;2024-03-17T08:06:00;8.85;;;7.95;;
81894;SDS011;76753;45.642;13.758;2024-03-17T08:08:45;8.20;;;6.72;;
81894;SDS011;76753;45.642;13.758;2024-03-17T08:11:30;8.45;;;7.63;;
81894;SDS011;76753;45.642;13.758;2024-03-17T08:14:14;9.98;;;8.95;;
81894;SDS011;76753;45.642;13.758;2024-03-17T08:16:59;8.05;;;7.25;;
81894;SDS011;76753;45.642;13.758;2024-03-17T08:19:43;11.52;;;9.13;;
81894;SDS011;76753;45.642;13.758;2024-03-17T08:22:28;12.88;;;9.73;;
81894;SDS011;76753;45.642;13.758;2024-03-17T08:25:12;15.00;;;12.55;;
81894;SDS011;76753;45.642;13.758;2024-03-17T08:27:57;15.18;;;13.57;;
81894;SDS011;76753;45.642;13.758;2024-03-17T08:30:41;15.45;;;13.07;;
81894;SDS011;76753;45.642;13.758;2024-03-17T08:33:25;14.93;;;13.32;;
81894;SDS011;76753;45.642;13.758;2024-03-17T08:36:10;16.05;;;13.02;;
81894;SDS011;76753;45.642;13.758;2024-03-17T08:38:55;11.90;;;10.70;;
81894;SDS011;76753;45.642;13.758;2024-03-17T08:41:39;11.50;;;10.27;;
81894;SDS011;76753;45.642;13.758;2024-03-17T08:44:24;11.27;;;10.18;;
81894;SDS011;76753;45.642;13.758;2024-03-17T08:47:08;13.25;;;10.40;;
81894;SDS011;76753;45.642;13.758;2024-03-17T08:49:52;11.10;;;9.63;;
81894;SDS011;76753;45.642;13.758;2024-03-17T08:52:37;12.45;;;10.07;;
81894;SDS011;76753;45.642;13.758;2024-03-17T08:55:21;12.60;;;9.13;;
81894;SDS011;76753;45.642;13.758;2024-03-17T08:58:06;11.52;;;9.60;;
81894;SDS011;76753;45.642;13.758;2024-03-17T09:00:51;10.52;;;8.50;;
81894;SDS011;76753;45.642;13.758;2024-03-17T09:03:35;8.20;;;7.40;;
81894;SDS011;76753;45.642;13.758;2024-03-17T09:06:20;8.50;;;7.63;;
81894;SDS011;76753;45.642;13.758;2024-03-17T09:09:07;8.07;;;7.18;;
81894;SDS011;76753;45.642;13.758;2024-03-17T09:11:52;8.40;;;6.90;;
81894;SDS011;76753;45.642;13.758;2024-03-17T09:14:36;7.72;;;7.03;;
81894;SDS011;76753;45.642;13.758;2024-03-17T09:17:21;11.60;;;7.82;;
81894;SDS011;76753;45.642;13.758;2024-03-17T09:20:06;13.10;;;7.85;;
81894;SDS011;76753;45.642;13.758;2024-03-17T09:22:55;16.08;;;9.32;;
81894;SDS011;76753;45.642;13.758;2024-03-17T09:25:39;13.27;;;8.65;;
81894;SDS011;76753;45.642;13.758;2024-03-17T09:28:23;16.05;;;11.25;;
81894;SDS011;76753;45.642;13.758;2024-03-17T09:31:08;21.83;;;19.17;;
81894;SDS011;76753;45.642;13.758;2024-03-17T09:33:55;41.38;;;28.13;;
81894;SDS011;76753;45.642;13.758;2024-03-17T09:36:39;50.38;;;36.25;;
81894;SDS011;76753;45.642;13.758;2024-03-17T09:39:24;65.78;;;41.80;;
81894;SDS011;76753;45.642;13.758;2024-03-17T09:42:10;63.60;;;45.65;;
81894;SDS011;76753;45.642;13.758;2024-03-17T09:45:02;75.10;;;52.13;;
81894;SDS011;76753;45.642;13.758;2024-03-17T09:47:47;67.55;;;47.65;;
81894;SDS011;76753;45.642;13.758;2024-03-17T09:50:31;78.22;;;52.50;;
81894;SDS011;76753;45.642;13.758;2024-03-17T09:53:21;64.43;;;47.55;;
81894;SDS011;76753;45.642;13.758;2024-03-17T09:56:12;62.97;;;43.50;;
81894;SDS011;76753;45.642;13.758;2024-03-17T09:59:02;63.67;;;43.85;;
81894;SDS011;76753;45.642;13.758;2024-03-17T10:01:47;58.90;;;43.17;;
81894;SDS011;76753;45.642;13.758;2024-03-17T10:04:33;51.10;;;38.00;;
81894;SDS011;76753;45.642;13.758;2024-03-17T10:07:17;51.40;;;37.40;;
81894;SDS011;76753;45.642;13.758;2024-03-17T10:10:10;51.47;;;35.92;;
81894;SDS011;76753;45.642;13.758;2024-03-17T10:12:56;47.28;;;35.05;;
81894;SDS011;76753;45.642;13.758;2024-03-17T10:15:47;44.60;;;33.33;;
81894;SDS011;76753;45.642;13.758;2024-03-17T10:18:33;42.53;;;31.20;;
81894;SDS011;76753;45.642;13.758;2024-03-17T10:21:24;38.35;;;29.60;;
81894;SDS011;76753;45.642;13.758;2024-03-17T10:24:11;37.13;;;28.70;;
81894;SDS011;76753;45.642;13.758;2024-03-17T10:27:05;37.50;;;28.13;;
81894;SDS011;76753;45.642;13.758;2024-03-17T10:29:55;31.50;;;25.77;;
81894;SDS011;76753;45.642;13.758;2024-03-17T10:32:39;32.17;;;25.02;;
81894;SDS011;76753;45.642;13.758;2024-03-17T10:35:28;32.58;;;24.10;;
81894;SDS011;76753;45.642;13.758;2024-03-17T10:38:12;29.75;;;22.35;;
81894;SDS011;76753;45.642;13.758;2024-03-17T10:40:57;27.60;;;21.50;;
81894;SDS011;76753;45.642;13.758;2024-03-17T10:43:41;25.35;;;21.73;;
81894;SDS011;76753;45.642;13.758;2024-03-17T10:46:26;26.02;;;19.70;;
81894;SDS011;76753;45.642;13.758;2024-03-17T10:49:10;24.65;;;19.48;;
81894;SDS011;76753;45.642;13.758;2024-03-17T10:51:57;24.98;;;20.27;;
81894;SDS011;76753;45.642;13.758;2024-03-17T10:54:47;23.20;;;19.38;;
81894;SDS011;76753;45.642;13.758;2024-03-17T10:57:46;22.77;;;18.52;;
81894;SDS011;76753;45.642;13.758;2024-03-17T11:00:32;21.35;;;16.75;;
81894;SDS011;76753;45.642;13.758;2024-03-17T11:03:18;21.02;;;16.98;;
81894;SDS011;76753;45.642;13.758;2024-03-17T11:06:03;19.35;;;16.80;;
81894;SDS011;76753;45.642;13.758;2024-03-17T11:08:48;19.55;;;16.45;;
81894;SDS011;76753;45.642;13.758;2024-03-17T11:11:36;17.70;;;15.85;;
81894;SDS011;76753;45.642;13.758;2024-03-17T11:14:23;17.35;;;15.55;;
81894;SDS011;76753;45.642;13.758;2024-03-17T11:17:18;22.00;;;16.58;;
81894;SDS011;76753;45.642;13.758;2024-03-17T11:20:36;18.23;;;14.98;;
81894;SDS011;76753;45.642;13.758;2024-03-17T11:23:25;18.00;;;14.23;;
81894;SDS011;76753;45.642;13.758;2024-03-17T11:26:11;19.92;;;15.43;;
81894;SDS011;76753;45.642;13.758;2024-03-17T11:29:26;16.33;;;14.02;;
81894;SDS011;76753;45.642;13.758;2024-03-17T11:32:26;14.57;;;13.15;;
81894;SDS011;76753;45.642;13.758;2024-03-17T11:35:17;17.58;;;13.30;;
81894;SDS011;76753;45.642;13.758;2024-03-17T11:38:07;15.25;;;13.10;;
81894;SDS011;76753;45.642;13.758;2024-03-17T11:40:51;17.50;;;14.00;;
81894;SDS011;76753;45.642;13.758;2024-03-17T11:43:35;15.55;;;13.32;;
81894;SDS011;76753;45.642;13.758;2024-03-17T11:46:20;15.52;;;12.35;;
81894;SDS011;76753;45.642;13.758;2024-03-17T11:49:05;13.60;;;12.15;;
81894;SDS011;76753;45.642;13.758;2024-03-17T11:51:50;14.70;;;12.75;;
81894;SDS011;76753;45.642;13.758;2024-03-17T11:54:36;14.05;;;11.93;;
81894;SDS011;76753;45.642;13.758;2024-03-17T11:57:26;13.45;;;12.05;;
81894;SDS011;76753;45.642;13.758;2024-03-17T12:00:29;14.00;;;12.13;;
81894;SDS011;76753;45.642;13.758;2024-03-17T12:03:14;13.18;;;11.77;;
81894;SDS011;76753;45.642;13.758;2024-03-17T12:05:58;12.07;;;10.88;;
81894;SDS011;76753;45.642;13.758;2024-03-17T12:08:44;12.40;;;11.05;;
81894;SDS011;76753;45.642;13.758;2024-03-17T12:11:28;14.52;;;11.73;;
81894;SDS011;76753;45.642;13.758;2024-03-17T12:14:18;13.82;;;10.90;;
81894;SDS011;76753;45.642;13.758;2024-03-17T12:19:51;14.70;;;10.95;;
81894;SDS011;76753;45.642;13.758;2024-03-17T12:22:36;11.55;;;10.35;;
81894;SDS011;76753;45.642;13.758;2024-03-17T12:25:21;11.25;;;10.20;;
81894;SDS011;76753;45.642;13.758;2024-03-17T12:28:12;14.57;;;10.98;;
81894;SDS011;76753;45.642;13.758;2024-03-17T12:31:00;12.02;;;10.90;;
81894;SDS011;76753;45.642;13.758;2024-03-17T12:33:45;11.80;;;10.63;;
81894;SDS011;76753;45.642;13.758;2024-03-17T12:36:29;13.23;;;10.55;;
81894;SDS011;76753;45.642;13.758;2024-03-17T12:39:18;12.45;;;11.10;;
81894;SDS011;76753;45.642;13.758;2024-03-17T12:44:58;12.25;;;11.07;;
81894;SDS011;76753;45.642;13.758;2024-03-17T12:47:46;11.82;;;10.63;;
81894;SDS011;76753;45.642;13.758;2024-03-17T12:50:32;12.27;;;11.15;;
81894;SDS011;76753;45.642;13.758;2024-03-17T12:53:17;12.30;;;11.00;;
81894;SDS011;76753;45.642;13.758;2024-03-17T12:56:01;13.93;;;12.48;;
81894;SDS011;76753;45.642;13.758;2024-03-17T12:59:05;17.40;;;14.35;;
81894;SDS011;76753;45.642;13.758;2024-03-17T13:02:12;21.48;;;18.83;;
81894;SDS011;76753;45.642;13.758;2024-03-17T13:05:06;16.98;;;15.18;;
81894;SDS011;76753;45.642;13.758;2024-03-17T13:08:04;26.67;;;21.73;;
81894;SDS011;76753;45.642;13.758;2024-03-17T13:10:49;33.40;;;24.38;;
81894;SDS011;76753;45.642;13.758;2024-03-17T13:13:34;20.50;;;16.58;;
81894;SDS011;76753;45.642;13.758;2024-03-17T13:16:18;23.60;;;16.60;;
81894;SDS011;76753;45.642;13.758;2024-03-17T13:19:03;30.08;;;26.92;;
81894;SDS011;76753;45.642;13.758;2024-03-17T13:21:47;23.58;;;20.50;;
81894;SDS011;76753;45.642;13.758;2024-03-17T13:24:31;30.33;;;21.65;;
81894;SDS011;76753;45.642;13.758;2024-03-17T13:27:16;18.50;;;16.30;;
81894;SDS011;76753;45.642;13.758;2024-03-17T13:30:00;22.73;;;20.27;;
81894;SDS011;76753;45.642;13.758;2024-03-17T13:32:45;24.35;;;20.90;;
81894;SDS011;76753;45.642;13.758;2024-03-17T13:35:29;19.08;;;14.38;;
81894;SDS011;76753;45.642;13.758;2024-03-17T13:38:14;15.95;;;14.32;;
81894;SDS011;76753;45.642;13.758;2024-03-17T13:40:58;16.70;;;15.07;;
81894;SDS011;76753;45.642;13.758;2024-03-17T13:43:43;16.58;;;14.30;;
81894;SDS011;76753;45.642;13.758;2024-03-17T13:46:27;21.45;;;16.35;;
81894;SDS011;76753;45.642;13.758;2024-03-17T13:49:12;20.52;;;18.40;;
81894;SDS011;76753;45.642;13.758;2024-03-17T13:51:56;12.45;;;11.20;;
81894;SDS011;76753;45.642;13.758;2024-03-17T13:54:41;13.57;;;11.77;;
81894;SDS011;76753;45.642;13.758;2024-03-17T13:57:25;12.30;;;11.05;;
81894;SDS011;76753;45.642;13.758;2024-03-17T14:00:09;11.95;;;10.18;;
81894;SDS011;76753;45.642;13.758;2024-03-17T14:02:59;12.77;;;11.50;;
81894;SDS011;76753;45.642;13.758;2024-03-17T14:05:43;13.57;;;11.93;;
81894;SDS011;76753;45.642;13.758;2024-03-17T14:08:27;12.63;;;11.43;;
81894;SDS011;76753;45.642;13.758;2024-03-17T14:11:12;10.85;;;9.63;;
81894;SDS011;76753;45.642;13.758;2024-03-17T14:13:57;13.32;;;11.10;;
81894;SDS011;76753;45.642;13.758;2024-03-17T14:16:42;13.10;;;10.40;;
81894;SDS011;76753;45.642;13.758;2024-03-17T14:19:29;13.18;;;11.18;;
81894;SDS011;76753;45.642;13.758;2024-03-17T14:22:14;12.52;;;10.10;;
81894;SDS011;76753;45.642;13.758;2024-03-17T14:25:00;10.60;;;9.38;;
81894;SDS011;76753;45.642;13.758;2024-03-17T14:27:45;11.90;;;10.75;;
81894;SDS011;76753;45.642;13.758;2024-03-17T14:30:30;13.82;;;9.70;;
81894;SDS011;76753;45.642;13.758;2024-03-17T14:33:17;10.82;;;9.77;;
81894;SDS011;76753;45.642;13.758;2024-03-17T14:36:01;11.85;;;10.27;;
81894;SDS011;76753;45.642;13.758;2024-03-17T14:38:46;10.75;;;9.70;;
81894;SDS011;76753;45.642;13.758;2024-03-17T14:41:30;11.13;;;10.02;;
81894;SDS011;76753;45.642;13.758;2024-03-17T14:44:14;10.52;;;9.45;;
81894;SDS011;76753;45.642;13.758;2024-03-17T14:46:59;10.73;;;9.63;;
81894;SDS011;76753;45.642;13.758;2024-03-17T14:49:43;10.77;;;9.30;;
81894;SDS011;76753;45.642;13.758;2024-03-17T14:52:29;10.45;;;9.43;;
81894;SDS011;76753;45.642;13.758;2024-03-17T14:55:15;13.00;;;10.32;;
81894;SDS011;76753;45.642;13.758;2024-03-17T14:58:00;11.13;;;9.82;;
81894;SDS011;76753;45.642;13.758;2024-03-17T15:00:50;11.02;;;9.93;;
81894;SDS011;76753;45.642;13.758;2024-03-17T15:03:36;10.48;;;9.57;;
81894;SDS011;76753;45.642;13.758;2024-03-17T15:06:20;10.70;;;9.38;;
81894;SDS011;76753;45.642;13.758;2024-03-17T15:09:04;10.43;;;9.32;;
81894;SDS011;76753;45.642;13.758;2024-03-17T15:11:49;11.60;;;10.32;;
81894;SDS011;76753;45.642;13.758;2024-03-17T15:14:34;10.57;;;9.68;;
81894;SDS011;76753;45.642;13.758;2024-03-17T15:17:20;10.90;;;9.75;;
81894;SDS011;76753;45.642;13.758;2024-03-17T15:20:05;10.30;;;9.23;;
81894;SDS011;76753;45.642;13.758;2024-03-17T15:22:59;10.55;;;9.13;;
81894;SDS011;76753;45.642;13.758;2024-03-17T15:25:44;10.60;;;9.70;;
81894;SDS011;76753;45.642;13.758;2024-03-17T15:28:29;10.45;;;9.27;;
81894;SDS011;76753;45.642;13.758;2024-03-17T15:31:13;10.20;;;9.15;;
81894;SDS011;76753;45.642;13.758;2024-03-17T15:33:58;9.93;;;8.93;;
81894;SDS011;76753;45.642;13.758;2024-03-17T15:36:43;9.25;;;8.15;;
81894;SDS011;76753;45.642;13.758;2024-03-17T15:39:27;9.43;;;8.40;;
81894;SDS011;76753;45.642;13.758;2024-03-17T15:42:13;9.25;;;8.40;;
81894;SDS011;76753;45.642;13.758;2024-03-17T15:44:58;8.75;;;7.95;;
81894;SDS011;76753;45.642;13.758;2024-03-17T15:47:43;8.73;;;7.72;;
81894;SDS011;76753;45.642;13.758;2024-03-17T15:50:27;9.55;;;8.52;;
81894;SDS011;76753;45.642;13.758;2024-03-17T15:53:13;8.90;;;8.10;;
81894;SDS011;76753;45.642;13.758;2024-03-17T15:55:57;8.75;;;7.93;;
81894;SDS011;76753;45.642;13.758;2024-03-17T15:58:45;9.38;;;8.55;;
81894;SDS011;76753;45.642;13.758;2024-03-17T16:01:30;9.38;;;8.57;;
81894;SDS011;76753;45.642;13.758;2024-03-17T16:04:15;8.73;;;7.93;;
81894;SDS011;76753;45.642;13.758;2024-03-17T16:06:59;9.45;;;8.30;;
81894;SDS011;76753;45.642;13.758;2024-03-17T16:09:44;9.25;;;8.45;;
81894;SDS011;76753;45.642;13.758;2024-03-17T16:12:28;9.63;;;8.68;;
81894;SDS011;76753;45.642;13.758;2024-03-17T16:15:12;7.65;;;6.85;;
81894;SDS011;76753;45.642;13.758;2024-03-17T16:17:57;8.75;;;7.78;;